createdAt,value
2023-02-15T00:01:48.038Z,10.85
2023-02-15T00:04:51.402Z,10.07
2023-02-15T00:07:54.452Z,8.68
2023-02-15T00:11:13.270Z,11.48
2023-02-15T00:14:22.646Z,10.15
2023-02-15T00:17:28.915Z,9.02
2023-02-15T00:20:34.022Z,11.25
2023-02-15T00:23:40.931Z,9.73
2023-02-15T00:26:45.114Z,8.18
2023-02-15T00:29:48.705Z,12.00
2023-02-15T00:32:51.981Z,10.02
2023-02-15T00:36:00.170Z,10.20
2023-02-15T00:39:04.013Z,10.27
2023-02-15T00:42:07.348Z,10.20
2023-02-15T00:45:13.734Z,9.63
2023-02-15T00:48:19.102Z,9.30
2023-02-15T00:51:22.107Z,12.30
2023-02-15T00:54:25.407Z,10.77
2023-02-15T00:57:28.290Z,10.65
2023-02-15T01:00:38.083Z,9.77
2023-02-15T01:03:43.391Z,9.65
2023-02-15T01:06:46.641Z,9.30
2023-02-15T01:09:54.355Z,11.50
2023-02-15T01:13:12.793Z,11.90
2023-02-15T01:16:33.570Z,9.68
2023-02-15T01:19:39.049Z,8.95
2023-02-15T01:22:45.424Z,9.23
2023-02-15T01:25:49.001Z,11.12
2023-02-15T01:28:54.330Z,8.70
2023-02-15T01:31:59.466Z,9.20
2023-02-15T01:35:27.721Z,10.68
2023-02-15T01:38:33.973Z,10.63
2023-02-15T01:41:39.048Z,11.20
2023-02-15T01:44:48.462Z,10.32
2023-02-15T01:48:06.559Z,8.35
2023-02-15T01:51:10.246Z,9.07
2023-02-15T01:54:28.697Z,10.40
2023-02-15T01:57:32.564Z,10.13
2023-02-15T02:00:38.022Z,8.98
2023-02-15T02:03:49.821Z,6.85
2023-02-15T02:06:58.397Z,9.40
2023-02-15T02:10:02.788Z,7.90
2023-02-15T02:13:44.265Z,8.80
2023-02-15T02:17:47.583Z,7.93
2023-02-15T02:21:35.966Z,9.50
2023-02-15T02:25:15.827Z,9.23
2023-02-15T02:28:54.042Z,9.15
2023-02-15T02:32:56.041Z,7.87
2023-02-15T02:36:52.808Z,8.30
2023-02-15T02:40:32.947Z,7.87
2023-02-15T02:43:50.580Z,8.88
2023-02-15T02:47:25.422Z,9.90
2023-02-15T02:51:01.171Z,9.27
2023-02-15T02:54:18.966Z,7.05
2023-02-15T02:57:41.222Z,9.43
2023-02-15T03:01:14.096Z,9.80
2023-02-15T03:04:36.878Z,7.50
2023-02-15T03:08:23.053Z,9.57
2023-02-15T03:11:40.056Z,7.70
2023-02-15T03:15:08.479Z,6.90
2023-02-15T03:18:53.863Z,8.88
2023-02-15T03:22:26.547Z,8.07
2023-02-15T03:26:00.042Z,8.98
2023-02-15T03:29:23.401Z,7.65
2023-02-15T03:32:42.439Z,6.85
2023-02-15T03:36:12.666Z,5.87
2023-02-15T03:39:56.934Z,7.35
2023-02-15T03:43:23.856Z,5.30
2023-02-15T03:46:53.600Z,5.20
2023-02-15T03:50:37.896Z,5.70
2023-02-15T03:53:58.349Z,7.50
2023-02-15T03:57:56.503Z,6.43
2023-02-15T04:01:44.733Z,4.43
2023-02-15T04:05:05.100Z,6.82
2023-02-15T04:08:58.743Z,7.30
2023-02-15T04:12:20.970Z,7.30
2023-02-15T04:16:05.606Z,5.62
2023-02-15T04:19:40.678Z,5.20
2023-02-15T04:23:18.620Z,5.37
2023-02-15T04:26:35.705Z,4.87
2023-02-15T04:33:28.654Z,5.55
2023-02-15T04:36:51.287Z,4.68
2023-02-15T04:40:10.729Z,5.00
2023-02-15T04:43:45.188Z,7.43
2023-02-15T04:47:02.857Z,4.87
2023-02-15T04:50:38.268Z,6.65
2023-02-15T04:53:58.020Z,6.28
2023-02-15T04:57:33.590Z,4.90
2023-02-15T05:01:04.828Z,5.85
2023-02-15T05:04:37.250Z,5.68
2023-02-15T05:07:55.020Z,6.00
2023-02-15T05:11:12.740Z,5.68
2023-02-15T05:14:47.449Z,5.57
2023-02-15T05:18:23.481Z,6.15
2023-02-15T05:21:40.827Z,4.53
2023-02-15T05:25:30.197Z,4.85
2023-02-15T05:28:47.527Z,6.30
2023-02-15T05:32:05.539Z,6.15
2023-02-15T05:35:38.237Z,5.53
2023-02-15T05:39:14.223Z,4.93
2023-02-15T05:42:34.289Z,5.82
2023-02-15T05:45:56.950Z,7.22
2023-02-15T05:49:32.449Z,5.93
2023-02-15T05:53:07.653Z,5.45
2023-02-15T05:56:28.235Z,4.32
2023-02-15T06:00:07.995Z,3.97
2023-02-15T06:03:29.770Z,4.60
2023-02-15T06:07:05.953Z,4.43
2023-02-15T06:10:28.198Z,4.65
2023-02-15T06:13:48.499Z,4.90
2023-02-15T06:17:23.060Z,5.03
2023-02-15T06:20:45.576Z,4.28
2023-02-15T06:24:20.089Z,4.97
2023-02-15T06:27:55.850Z,5.30
2023-02-15T06:31:31.876Z,4.50
2023-02-15T06:34:50.550Z,4.12
2023-02-15T06:38:10.089Z,4.78
2023-02-15T06:41:27.711Z,4.28
2023-02-15T06:48:20.164Z,5.65
2023-02-15T06:51:37.754Z,6.72
2023-02-15T06:55:08.693Z,4.87
2023-02-15T06:58:46.955Z,7.40
2023-02-15T07:05:49.039Z,6.03
2023-02-15T07:09:28.858Z,5.75
2023-02-15T07:13:08.865Z,5.97
2023-02-15T07:16:41.179Z,7.47
2023-02-15T07:20:03.920Z,7.78
2023-02-15T07:23:26.640Z,6.35
2023-02-15T07:27:03.292Z,5.97
2023-02-15T07:30:38.792Z,7.10
2023-02-15T07:33:58.534Z,7.18
2023-02-15T07:37:31.188Z,6.93
2023-02-15T07:41:08.351Z,7.03
2023-02-15T07:44:35.545Z,7.20
2023-02-15T07:48:08.671Z,7.80
2023-02-15T07:55:15.809Z,5.45
2023-02-15T07:58:53.106Z,7.03
2023-02-15T08:02:17.501Z,8.80
2023-02-15T08:05:50.652Z,8.52
2023-02-15T08:09:09.853Z,6.97
2023-02-15T08:12:32.204Z,8.48
2023-02-15T08:16:05.953Z,8.00
2023-02-15T08:19:38.890Z,9.10
2023-02-15T08:23:11.167Z,9.50
2023-02-15T08:26:33.516Z,8.25
2023-02-15T08:30:09.678Z,10.10
2023-02-15T08:33:31.650Z,8.85
2023-02-15T08:37:07.323Z,9.48
2023-02-15T08:40:25.294Z,9.20
2023-02-15T08:44:03.020Z,10.57
2023-02-15T08:47:20.683Z,9.82
2023-02-15T08:50:47.613Z,10.60
2023-02-15T08:54:22.796Z,10.43
2023-02-15T08:57:45.976Z,9.45
2023-02-15T09:01:23.945Z,9.63
2023-02-15T09:08:29.930Z,8.65
2023-02-15T09:12:03.639Z,9.02
2023-02-15T09:15:36.293Z,9.77
2023-02-15T09:19:09.661Z,8.55
2023-02-15T09:22:42.284Z,8.02
2023-02-15T09:26:21.159Z,9.45
2023-02-15T09:29:47.638Z,9.52
2023-02-15T09:33:27.088Z,10.35
2023-02-15T09:36:54.811Z,12.65
2023-02-15T09:40:24.661Z,10.93
2023-02-15T09:44:14.702Z,10.88
2023-02-15T09:48:13.602Z,8.27
2023-02-15T09:52:16.123Z,10.43
2023-02-15T09:56:21.028Z,11.27
2023-02-15T10:00:14.598Z,11.25
2023-02-15T10:04:08.726Z,12.40
2023-02-15T10:07:44.639Z,12.88
2023-02-15T10:11:24.748Z,13.80
2023-02-15T10:15:25.138Z,12.93
2023-02-15T10:19:10.690Z,10.60
2023-02-15T10:23:20.403Z,11.43
2023-02-15T10:27:03.990Z,10.98
2023-02-15T10:30:46.129Z,11.32
2023-02-15T10:34:38.649Z,10.55
2023-02-15T10:38:16.012Z,11.77
2023-02-15T10:42:10.950Z,11.12
2023-02-15T10:46:06.234Z,11.45
2023-02-15T10:50:01.282Z,11.00
2023-02-15T10:54:05.383Z,11.95
2023-02-15T10:58:03.543Z,10.90
2023-02-15T11:01:58.644Z,11.17
2023-02-15T11:06:01.757Z,11.48
2023-02-15T11:09:40.375Z,10.55
2023-02-15T11:13:19.677Z,12.50
2023-02-15T11:17:32.072Z,15.88
2023-02-15T11:21:22.997Z,14.43
2023-02-15T11:24:48.040Z,12.65
2023-02-15T11:28:44.281Z,14.27
2023-02-15T11:32:24.813Z,15.35
2023-02-15T11:36:33.671Z,16.70
2023-02-15T11:40:29.559Z,17.50
2023-02-15T11:44:40.574Z,16.62
2023-02-15T11:48:18.919Z,15.15
2023-02-15T11:52:06.222Z,15.57
2023-02-15T11:55:40.896Z,14.57
2023-02-15T11:59:22.887Z,13.27
2023-02-15T12:02:59.533Z,12.32
2023-02-15T12:06:42.401Z,11.50
2023-02-15T12:10:36.026Z,10.60
2023-02-15T12:14:12.976Z,11.57
2023-02-15T12:17:57.828Z,10.88
2023-02-15T12:21:40.980Z,10.77
2023-02-15T12:25:27.445Z,11.23
2023-02-15T12:29:03.299Z,11.48
2023-02-15T12:32:50.166Z,11.38
2023-02-15T12:36:31.195Z,10.50
2023-02-15T12:40:31.685Z,11.52
2023-02-15T12:44:07.489Z,11.77
2023-02-15T12:47:39.824Z,9.65
2023-02-15T12:51:20.791Z,10.68
2023-02-15T12:55:23.583Z,11.25
2023-02-15T12:59:06.308Z,11.43
2023-02-15T13:02:47.450Z,11.10
2023-02-15T13:06:21.910Z,11.10
2023-02-15T13:09:54.724Z,10.40
2023-02-15T13:13:44.042Z,10.38
2023-02-15T13:17:11.018Z,9.48
2023-02-15T13:21:01.625Z,10.48
2023-02-15T13:25:01.800Z,10.73
2023-02-15T13:29:09.751Z,10.90
2023-02-15T13:32:41.895Z,11.23
2023-02-15T13:36:21.449Z,11.02
2023-02-15T13:40:00.403Z,11.13
2023-02-15T13:43:59.577Z,11.10
2023-02-15T13:47:47.699Z,9.65
2023-02-15T13:52:17.376Z,11.02
2023-02-15T13:56:07.444Z,10.45
2023-02-15T13:59:50.244Z,9.73
2023-02-15T14:03:49.435Z,9.52
2023-02-15T14:07:43.312Z,9.05
2023-02-15T14:11:24.933Z,9.18
2023-02-15T14:15:35.081Z,9.55
2023-02-15T14:19:17.572Z,10.00
2023-02-15T14:23:02.359Z,8.52
2023-02-15T14:27:12.101Z,8.32
2023-02-15T14:30:41.734Z,7.97
2023-02-15T14:34:31.343Z,9.00
2023-02-15T14:38:22.757Z,9.18
2023-02-15T14:42:03.590Z,9.80
2023-02-15T14:46:01.791Z,8.88
2023-02-15T14:49:41.120Z,8.88
2023-02-15T14:53:36.904Z,9.35
2023-02-15T14:57:15.873Z,9.50
2023-02-15T15:00:49.261Z,9.17
2023-02-15T15:04:14.593Z,10.40
2023-02-15T15:08:00.239Z,9.07
2023-02-15T15:11:50.438Z,8.30
2023-02-15T15:15:29.650Z,8.38
2023-02-15T15:19:11.871Z,9.55
2023-02-15T15:22:51.142Z,7.80
2023-02-15T15:26:41.848Z,7.87
2023-02-15T15:30:20.294Z,7.00
2023-02-15T15:34:41.202Z,8.35
2023-02-15T15:38:38.484Z,7.05
2023-02-15T15:42:37.560Z,7.90
2023-02-15T15:46:47.214Z,9.10
2023-02-15T15:50:23.902Z,7.32
2023-02-15T15:53:59.118Z,8.60
2023-02-15T15:57:45.394Z,9.38
2023-02-15T16:01:27.228Z,9.43
2023-02-15T16:05:10.125Z,9.63
2023-02-15T16:08:47.763Z,8.65
2023-02-15T16:12:23.693Z,9.52
2023-02-15T16:16:00.892Z,9.68
2023-02-15T16:19:45.456Z,11.15
2023-02-15T16:23:27.235Z,10.40
2023-02-15T16:27:19.161Z,12.15
2023-02-15T16:31:15.579Z,10.82
2023-02-15T16:35:03.019Z,12.30
2023-02-15T16:38:45.597Z,12.15
2023-02-15T16:42:19.629Z,13.35
2023-02-15T16:46:04.433Z,10.63
2023-02-15T16:49:46.576Z,11.32
2023-02-15T16:53:27.966Z,11.35
2023-02-15T16:57:05.370Z,12.00
2023-02-15T17:00:44.589Z,11.55
2023-02-15T17:04:24.301Z,13.30
2023-02-15T17:08:03.338Z,12.70
2023-02-15T17:11:45.392Z,13.48
2023-02-15T17:15:33.347Z,14.70
2023-02-15T17:19:17.648Z,13.18
2023-02-15T17:26:39.239Z,10.68
2023-02-15T17:30:41.698Z,12.55
2023-02-15T17:34:43.113Z,10.65
2023-02-15T17:38:21.839Z,13.57
2023-02-15T17:41:54.665Z,12.77
2023-02-15T17:45:34.831Z,14.23
2023-02-15T17:49:29.731Z,12.25
2023-02-15T17:53:04.605Z,12.48
2023-02-15T17:56:41.201Z,12.80
2023-02-15T18:00:35.238Z,17.33
2023-02-15T18:04:34.698Z,13.93
2023-02-15T18:08:30.555Z,11.77
2023-02-15T18:15:48.905Z,15.32
2023-02-15T18:19:26.216Z,15.35
2023-02-15T18:23:06.731Z,16.05
2023-02-15T18:26:39.893Z,14.40
2023-02-15T18:30:22.448Z,15.30
2023-02-15T18:33:36.672Z,18.80
2023-02-15T18:37:06.052Z,14.45
2023-02-15T18:40:22.584Z,16.55
2023-02-15T18:43:25.451Z,16.25
2023-02-15T18:46:35.035Z,17.05
2023-02-15T18:50:20.276Z,17.00
2023-02-15T18:53:25.108Z,17.00
2023-02-15T18:56:57.341Z,15.35
2023-02-15T19:00:01.216Z,15.55
2023-02-15T19:03:08.579Z,19.42
2023-02-15T19:06:15.696Z,18.87
2023-02-15T19:09:26.583Z,14.57
2023-02-15T19:12:34.136Z,15.48
2023-02-15T19:15:45.718Z,16.40
2023-02-15T19:18:49.728Z,16.50
2023-02-15T19:21:57.327Z,15.88
2023-02-15T19:25:33.978Z,16.90
2023-02-15T19:31:43.478Z,12.18
2023-02-15T19:34:48.890Z,16.03
2023-02-15T19:37:54.759Z,15.57
2023-02-15T19:41:07.033Z,16.80
2023-02-15T19:44:12.821Z,13.82
2023-02-15T19:47:18.482Z,13.27
2023-02-15T19:50:29.506Z,14.60
2023-02-15T19:53:35.603Z,17.12
2023-02-15T19:56:42.377Z,14.23
2023-02-15T19:59:46.687Z,15.57
2023-02-15T20:02:53.115Z,16.05
2023-02-15T20:06:05.602Z,16.70
2023-02-15T20:09:35.461Z,14.80
2023-02-15T20:12:47.565Z,16.55
2023-02-15T20:16:11.006Z,15.02
2023-02-15T20:19:35.212Z,17.00
2023-02-15T20:22:40.941Z,15.68
2023-02-15T20:25:49.620Z,18.83
2023-02-15T20:28:54.958Z,16.08
2023-02-15T20:32:03.477Z,16.80
2023-02-15T20:35:07.359Z,17.48
2023-02-15T20:38:17.432Z,17.10
2023-02-15T20:41:38.980Z,18.87
2023-02-15T20:44:44.055Z,16.50
2023-02-15T20:47:50.800Z,16.90
2023-02-15T20:50:55.736Z,17.58
2023-02-15T20:54:00.625Z,17.67
2023-02-15T20:57:28.045Z,17.05
2023-02-15T21:00:33.283Z,15.60
2023-02-15T21:03:39.628Z,18.27
2023-02-15T21:06:45.503Z,20.42
2023-02-15T21:10:20.957Z,16.55
2023-02-15T21:13:33.039Z,16.65
2023-02-15T21:16:40.821Z,18.33
2023-02-15T21:19:44.014Z,17.95
2023-02-15T21:22:49.506Z,20.25
2023-02-15T21:25:56.696Z,16.12
2023-02-15T21:29:03.928Z,17.27
2023-02-15T21:32:10.955Z,19.67
2023-02-15T21:35:18.139Z,17.52
2023-02-15T21:38:31.329Z,18.10
2023-02-15T21:42:34.910Z,16.92
2023-02-15T21:45:56.639Z,16.52
2023-02-15T21:49:04.357Z,17.05
2023-02-15T21:52:12.681Z,17.80
2023-02-15T21:55:19.838Z,17.55
2023-02-15T21:58:27.429Z,22.33
2023-02-15T22:01:34.191Z,20.73
2023-02-15T22:04:37.159Z,14.87
2023-02-15T22:07:42.482Z,16.48
2023-02-15T22:10:49.997Z,15.43
2023-02-15T22:13:55.253Z,17.65
2023-02-15T22:17:01.888Z,17.50
2023-02-15T22:20:21.871Z,15.82
2023-02-15T22:23:25.745Z,16.80
2023-02-15T22:26:29.168Z,16.48
2023-02-15T22:29:33.285Z,14.57
2023-02-15T22:32:57.905Z,17.50
2023-02-15T22:36:03.943Z,13.65
2023-02-15T22:42:21.338Z,13.02
2023-02-15T22:45:25.570Z,13.20
2023-02-15T22:48:29.294Z,11.52
2023-02-15T22:51:42.292Z,14.38
2023-02-15T22:54:46.398Z,14.43
2023-02-15T22:57:52.000Z,11.65
2023-02-15T23:00:54.967Z,14.70
2023-02-15T23:03:58.086Z,13.85
2023-02-15T23:07:12.101Z,16.15
2023-02-15T23:10:21.280Z,13.57
2023-02-15T23:13:31.227Z,16.70
2023-02-15T23:16:37.391Z,12.50
2023-02-15T23:19:40.464Z,14.05
2023-02-15T23:22:46.388Z,12.02
2023-02-15T23:25:49.281Z,13.88
2023-02-15T23:28:57.318Z,16.50
2023-02-15T23:32:00.585Z,12.50
2023-02-15T23:35:18.080Z,16.33
2023-02-15T23:38:26.699Z,12.43
2023-02-15T23:41:33.385Z,12.23
2023-02-15T23:48:01.417Z,8.55
2023-02-15T23:51:06.650Z,9.38
2023-02-15T23:54:09.691Z,12.75
2023-02-15T23:57:23.946Z,12.63
